Time;durP1;ratioP1;P1;durP2;ratioP2;P2;SDS_P1;SDS_P2;PMS_P1;PMS_P2;Temp;Humidity;BMP_temperature;BMP_pressure;BME280_temperature;BME280_humidity;BME280_pressure;Samples;Min_cycle;Max_cycle;Signal;HPM_P1;HPM_P2
2020/04/07 00:00:00;;;;;;;9.5;5.5;;;;;;;8.64;62.06738;947.8771;;;;
2020/04/07 00:02:27;;;;;;;7.4;5.2;;;;;;;8.66;61.87598;947.9055;;;;
2020/04/07 00:04:53;;;;;;;7;5.2;;;;;;;8.64;61.83887;947.9294;;;;
2020/04/07 00:07:22;;;;;;;8.7;5.7;;;;;;;8.6;61.95898;947.9327;;;;
2020/04/07 00:09:49;;;;;;;8.3;5.2;;;;;;;8.32;63.12305;947.9164;;;;
2020/04/07 00:12:14;;;;;;;7.8;5.6;;;;;;;8.37;62.98145;947.9423;;;;
2020/04/07 00:14:40;;;;;;;7;5.5;;;;;;;8.48;62.45313;947.9272;;;;
2020/04/07 00:17:04;;;;;;;7.8;5.8;;;;;;;8.46;62.59863;947.9853;;;;
2020/04/07 00:19:30;;;;;;;9.5;6.1;;;;;;;8.44;62.69629;947.9575;;;;
2020/04/07 00:21:55;;;;;;;11.2;6;;;;;;;8.36;62.95801;947.9554;;;;
2020/04/07 00:24:20;;;;;;;9.4;6;;;;;;;8.38;62.9834;948.0259;;;;
2020/04/07 00:26:46;;;;;;;7.3;5.6;;;;;;;8.43;62.54785;948.0446;;;;
2020/04/07 00:29:11;;;;;;;8;5.8;;;;;;;8.47;62.46191;948.0275;;;;
2020/04/07 00:31:36;;;;;;;8.4;5.5;;;;;;;8.5;62.26172;948.0936;;;;
2020/04/07 00:34:01;;;;;;;7;5.6;;;;;;;8.39;62.74707;948.0947;;;;
2020/04/07 00:36:26;;;;;;;9;5.7;;;;;;;8.35;62.8877;948.0925;;;;
2020/04/07 00:38:51;;;;;;;9.7;6.6;;;;;;;8.11;63.87598;948.1019;;;;
2020/04/07 00:41:16;;;;;;;8.3;5.9;;;;;;;8.01;64.08789;948.1595;;;;
2020/04/07 00:43:41;;;;;;;7.2;5.3;;;;;;;8.08;63.83594;948.1722;;;;
2020/04/07 00:46:07;;;;;;;7.6;5.3;;;;;;;7.97;64.23828;948.1608;;;;
2020/04/07 00:48:32;;;;;;;7.3;5.4;;;;;;;7.9;64.36523;948.2211;;;;
2020/04/07 00:50:57;;;;;;;8.8;5.3;;;;;;;7.86;64.64355;948.257;;;;
2020/04/07 00:53:23;;;;;;;8.1;5.8;;;;;;;7.83;64.73047;948.2498;;;;
2020/04/07 00:55:48;;;;;;;8.7;5.7;;;;;;;7.9;64.70703;948.2444;;;;
2020/04/07 00:58:14;;;;;;;16.4;6.1;;;;;;;7.85;64.90332;948.267;;;;
2020/04/07 01:02:32;;;;;;;10.9;6.7;;;;;;;7.75;65.18359;948.3043;;;;
2020/04/07 01:04:57;;;;;;;10.3;6.2;;;;;;;7.69;65.27734;948.361;;;;
2020/04/07 01:07:22;;;;;;;9.1;6.3;;;;;;;7.71;65.18945;948.3759;;;;
2020/04/07 01:09:50;;;;;;;15.6;6.7;;;;;;;7.85;64.69922;948.3209;;;;
2020/04/07 01:12:15;;;;;;;8.8;6.3;;;;;;;7.89;64.47852;948.3186;;;;
2020/04/07 01:14:40;;;;;;;8.6;6.2;;;;;;;7.94;64.22363;948.3773;;;;
2020/04/07 01:17:06;;;;;;;8.1;6.2;;;;;;;7.8;64.47656;948.414;;;;
2020/04/07 01:19:30;;;;;;;8.1;6.3;;;;;;;7.7;64.7666;948.449;;;;
2020/04/07 01:21:57;;;;;;;7.6;5.6;;;;;;;7.49;65.46094;948.4032;;;;
2020/04/07 01:24:22;;;;;;;8.1;5.9;;;;;;;7.43;65.71387;948.3638;;;;
2020/04/07 01:26:47;;;;;;;6.8;5.6;;;;;;;7.26;66.53516;948.3806;;;;
2020/04/07 01:29:12;;;;;;;10.7;5.6;;;;;;;7.29;66.50879;948.4367;;;;
2020/04/07 01:31:37;;;;;;;8.3;5.2;;;;;;;7.44;66.14453;948.3394;;;;
2020/04/07 01:34:02;;;;;;;9;5.5;;;;;;;7.39;66.27344;948.4426;;;;
2020/04/07 01:36:28;;;;;;;8.3;5.8;;;;;;;7.42;66.20898;948.4211;;;;
2020/04/07 01:38:53;;;;;;;12.4;6.2;;;;;;;7.32;66.46582;948.4218;;;;
2020/04/07 01:41:18;;;;;;;11.5;5.8;;;;;;;7.26;66.73926;948.4281;;;;
2020/04/07 01:43:43;;;;;;;7.1;5.4;;;;;;;7.35;66.49316;948.4434;;;;
2020/04/07 01:46:09;;;;;;;11.1;6;;;;;;;7.4;66.77344;948.493;;;;
2020/04/07 01:48:33;;;;;;;8.9;5.8;;;;;;;7.42;66.82324;948.5298;;;;
2020/04/07 01:50:58;;;;;;;15;8;;;;;;;7.46;66.39746;948.4711;;;;
2020/04/07 01:53:24;;;;;;;13.8;7.7;;;;;;;7.51;65.82617;948.5591;;;;
2020/04/07 01:55:49;;;;;;;13.8;7.6;;;;;;;7.53;65.41016;948.597;;;;
2020/04/07 01:58:14;;;;;;;13;7.4;;;;;;;7.4;65.75293;948.6445;;;;
2020/04/07 02:00:41;;;;;;;11;6.5;;;;;;;7.42;65.65527;948.5908;;;;
2020/04/07 02:03:07;;;;;;;8.1;6;;;;;;;7.17;66.69336;948.5994;;;;
2020/04/07 02:05:32;;;;;;;9.6;6.1;;;;;;;6.88;67.74609;948.6616;;;;
2020/04/07 02:07:58;;;;;;;8;5.8;;;;;;;6.96;67.50977;948.6616;;;;
2020/04/07 02:10:23;;;;;;;8.4;5.9;;;;;;;7;67.49316;948.6616;;;;
2020/04/07 02:12:48;;;;;;;6.7;5.4;;;;;;;7.05;67.31934;948.6449;;;;
2020/04/07 02:15:14;;;;;;;7.9;5.6;;;;;;;7.06;67.34277;948.6902;;;;
2020/04/07 02:17:39;;;;;;;8.8;5.8;;;;;;;6.92;67.84082;948.6741;;;;
2020/04/07 02:20:04;;;;;;;8.2;5.9;;;;;;;6.64;69.13379;948.7063;;;;
2020/04/07 02:22:29;;;;;;;8.1;5.9;;;;;;;6.62;69.40039;948.7084;;;;
2020/04/07 02:24:54;;;;;;;9.5;6.1;;;;;;;6.72;69.05469;948.7047;;;;
2020/04/07 02:27:19;;;;;;;9.2;6.2;;;;;;;6.75;68.93555;948.6955;;;;
2020/04/07 02:29:44;;;;;;;10;6.8;;;;;;;6.66;69.125;948.6633;;;;
2020/04/07 02:32:09;;;;;;;10;6.3;;;;;;;6.67;69.22656;948.6511;;;;
2020/04/07 02:34:35;;;;;;;7.9;6;;;;;;;6.74;68.85547;948.7498;;;;
2020/04/07 02:37:00;;;;;;;10.1;6.2;;;;;;;6.73;68.87598;948.6836;;;;
2020/04/07 02:39:26;;;;;;;14.4;6.5;;;;;;;6.7;68.98535;948.6699;;;;
2020/04/07 02:41:51;;;;;;;7.5;5.8;;;;;;;6.73;68.9668;948.7155;;;;
2020/04/07 02:44:16;;;;;;;9.7;5.6;;;;;;;6.7;68.97363;948.8456;;;;
2020/04/07 02:46:41;;;;;;;7.8;5.7;;;;;;;6.77;68.63281;948.7953;;;;
2020/04/07 02:49:06;;;;;;;8.8;6;;;;;;;6.82;68.32324;948.8031;;;;
2020/04/07 02:51:32;;;;;;;9.7;6.1;;;;;;;6.81;68.30078;948.8312;;;;
2020/04/07 02:53:58;;;;;;;9;5.8;;;;;;;6.77;68.46191;948.8601;;;;
2020/04/07 02:56:23;;;;;;;7.4;6.3;;;;;;;6.77;68.34863;948.9139;;;;
2020/04/07 02:58:49;;;;;;;9.2;8.2;;;;;;;6.74;68.35742;948.9271;;;;
2020/04/07 03:01:20;;;;;;;11.2;8.9;;;;;;;6.78;68.14941;948.9225;;;;
2020/04/07 03:03:40;;;;;;;10.7;9.1;;;;;;;6.75;68.2002;948.9102;;;;
2020/04/07 03:08:29;;;;;;;10.5;7.7;;;;;;;6.63;68.61035;948.871;;;;
2020/04/07 03:10:56;;;;;;;10.7;7.2;;;;;;;6.63;68.57715;948.8655;;;;
2020/04/07 03:13:35;;;;;;;9.3;6.8;;;;;;;6.6;68.76563;948.8769;;;;
2020/04/07 03:15:54;;;;;;;9.6;6.7;;;;;;;6.6;68.70898;948.8572;;;;
2020/04/07 03:18:17;;;;;;;9.7;7;;;;;;;6.47;69.23047;948.9448;;;;
2020/04/07 03:20:49;;;;;;;16.2;10.1;;;;;;;6.47;69.10547;948.9647;;;;
2020/04/07 03:23:03;;;;;;;14.3;9.9;;;;;;;6.55;68.72461;949.0117;;;;
2020/04/07 03:25:28;;;;;;;13.1;9.3;;;;;;;6.52;68.76367;949.0144;;;;
2020/04/07 03:27:54;;;;;;;14.2;9.1;;;;;;;6.6;68.44727;948.9707;;;;
2020/04/07 03:30:19;;;;;;;14.8;8.7;;;;;;;6.58;68.35547;949.0264;;;;
2020/04/07 03:32:44;;;;;;;13.2;8.3;;;;;;;6.51;68.4668;949.0898;;;;
2020/04/07 03:35:11;;;;;;;13.6;8.4;;;;;;;6.44;68.75098;949.0973;;;;
2020/04/07 03:37:36;;;;;;;11.8;8.4;;;;;;;6.34;69.15137;949.0047;;;;
2020/04/07 03:40:02;;;;;;;11.6;7.7;;;;;;;6.36;69.16699;949.058;;;;
2020/04/07 03:42:27;;;;;;;18.8;8.6;;;;;;;6.31;69.49805;949.1094;;;;
2020/04/07 03:44:53;;;;;;;11;6.5;;;;;;;6.14;70.39844;949.038;;;;
2020/04/07 03:47:18;;;;;;;11;6.6;;;;;;;6.15;70.47754;949.0832;;;;
2020/04/07 03:49:44;;;;;;;9.7;6.2;;;;;;;6.14;70.55469;949.1042;;;;
2020/04/07 03:52:10;;;;;;;13.6;6.3;;;;;;;6.26;70.08789;949.0914;;;;
2020/04/07 03:54:35;;;;;;;11.5;6.3;;;;;;;6.24;70.10938;949.0917;;;;
2020/04/07 03:57:01;;;;;;;8.9;6.4;;;;;;;6.17;70.33496;949.0953;;;;
2020/04/07 03:59:26;;;;;;;10.4;6.1;;;;;;;6.16;70.43457;949.0989;;;;
2020/04/07 04:02:30;;;;;;;11.4;6.4;;;;;;;6.26;69.97461;949.2109;;;;
2020/04/07 04:04:55;;;;;;;13;6.7;;;;;;;6.36;69.65332;949.1482;;;;
2020/04/07 04:07:20;;;;;;;23.8;10;;;;;;;6.31;69.91602;949.1987;;;;
2020/04/07 04:09:45;;;;;;;18.6;9.5;;;;;;;6.33;69.85156;949.1933;;;;
2020/04/07 04:12:10;;;;;;;14;10;;;;;;;6.34;69.72949;949.2866;;;;
2020/04/07 04:14:35;;;;;;;14.4;9;;;;;;;6.39;69.29785;949.3331;;;;
2020/04/07 04:17:00;;;;;;;12.7;7.6;;;;;;;6.28;69.53906;949.3746;;;;
2020/04/07 04:19:26;;;;;;;10.5;7;;;;;;;6.19;69.71777;949.3296;;;;
2020/04/07 04:21:51;;;;;;;12;7;;;;;;;6.16;69.95898;949.3652;;;;
2020/04/07 04:24:16;;;;;;;10.1;7.2;;;;;;;6.15;70.02637;949.4067;;;;
2020/04/07 04:26:41;;;;;;;12.1;6.6;;;;;;;6.15;70.13965;949.3658;;;;
2020/04/07 04:29:06;;;;;;;10.3;7.1;;;;;;;6.06;70.40625;949.372;;;;
2020/04/07 04:31:31;;;;;;;14.4;7;;;;;;;5.89;71.22461;949.389;;;;
2020/04/07 04:33:57;;;;;;;15.5;6.8;;;;;;;5.95;71.0332;949.3758;;;;
2020/04/07 04:36:22;;;;;;;17.5;8.6;;;;;;;5.91;71.23047;949.3644;;;;
2020/04/07 04:38:47;;;;;;;14;9;;;;;;;5.93;71.08594;949.4094;;;;
2020/04/07 04:41:12;;;;;;;18.2;12.3;;;;;;;5.96;70.98828;949.4146;;;;
2020/04/07 04:43:37;;;;;;;23;15.3;;;;;;;6.03;70.61621;949.4348;;;;
2020/04/07 04:46:04;;;;;;;23.5;14.9;;;;;;;5.96;70.74023;949.4415;;;;
2020/04/07 04:48:29;;;;;;;19.6;12.7;;;;;;;5.96;70.66211;949.4922;;;;
2020/04/07 04:50:55;;;;;;;18.8;10.6;;;;;;;5.87;71.16699;949.4832;;;;
2020/04/07 04:53:20;;;;;;;11.4;8.6;;;;;;;5.83;71.22754;949.4933;;;;
2020/04/07 04:55:45;;;;;;;20.1;7.9;;;;;;;5.73;71.69434;949.5466;;;;
2020/04/07 04:58:10;;;;;;;9.9;6.6;;;;;;;5.69;71.70117;949.5008;;;;
2020/04/07 05:00:42;;;;;;;17;7;;;;;;;5.8;71.2334;949.4704;;;;
2020/04/07 05:03:40;;;;;;;19.8;7.6;;;;;;;5.84;71.25293;949.4676;;;;
2020/04/07 05:07:56;;;;;;;10;5.8;;;;;;;6.1;69.93848;949.5455;;;;
2020/04/07 05:10:26;;;;;;;12;6.9;;;;;;;6.08;70.16211;949.5628;;;;
2020/04/07 05:12:47;;;;;;;26.4;8.9;;;;;;;5.88;71.24707;949.5209;;;;
2020/04/07 05:18:54;;;;;;;15.4;7.4;;;;;;;6.02;70.78418;949.5678;;;;
2020/04/07 05:20:18;;;;;;;23.6;8;;;;;;;6.04;70.7998;949.5285;;;;
2020/04/07 05:22:35;;;;;;;17.9;8.3;;;;;;;6.19;70.31543;949.6299;;;;
2020/04/07 05:25:05;;;;;;;21;8;;;;;;;6.32;70.87988;949.6591;;;;
2020/04/07 05:27:14;;;;;;;23.7;8.6;;;;;;;6.53;69.4668;949.6842;;;;
2020/04/07 05:29:39;;;;;;;22.5;8.3;;;;;;;6.69;68.34863;949.7006;;;;
2020/04/07 05:32:04;;;;;;;22;9.1;;;;;;;6.8;67.68848;949.6785;;;;
2020/04/07 05:34:29;;;;;;;20.4;8.9;;;;;;;6.78;67.43457;949.7407;;;;
2020/04/07 05:36:54;;;;;;;21.7;8.1;;;;;;;6.71;67.75293;949.7908;;;;
2020/04/07 05:39:19;;;;;;;16.9;7.9;;;;;;;6.66;67.98242;949.796;;;;
2020/04/07 05:41:45;;;;;;;22.7;8.2;;;;;;;6.75;68.33594;949.8212;;;;
2020/04/07 05:44:10;;;;;;;15.6;7.1;;;;;;;7.47;65.83203;949.7053;;;;
2020/04/07 05:46:35;;;;;;;23.1;7.2;;;;;;;8.35;62.83105;949.789;;;;
2020/04/07 05:49:01;;;;;;;30.4;8.1;;;;;;;9.32;59.56934;949.8463;;;;
2020/04/07 05:51:26;;;;;;;11.4;6.3;;;;;;;10.1;56.47168;949.7634;;;;
2020/04/07 05:53:56;;;;;;;24.2;7.1;;;;;;;10.35;55.5;949.7858;;;;
2020/04/07 05:56:19;;;;;;;21;7;;;;;;;10.56;54.95605;949.7894;;;;
2020/04/07 06:01:09;;;;;;;17.5;6.3;;;;;;;10.73;54.22266;949.8381;;;;
2020/04/07 06:03:35;;;;;;;14.6;5.7;;;;;;;10.38;54.32813;949.7578;;;;
2020/04/07 06:06:00;;;;;;;15.8;6.2;;;;;;;10.47;54.83008;949.7917;;;;
2020/04/07 06:08:26;;;;;;;14.8;5.9;;;;;;;11.21;52.85449;949.7216;;;;
2020/04/07 06:10:51;;;;;;;13.1;6;;;;;;;11.99;50.21094;949.7991;;;;
2020/04/07 06:13:16;;;;;;;13.7;6.1;;;;;;;12.83;47.77148;949.8485;;;;
2020/04/07 06:15:56;;;;;;;13.1;6;;;;;;;13.77;45.28809;949.7623;;;;
2020/04/07 06:20:35;;;;;;;12.1;5.7;;;;;;;15.26;41.35645;949.788;;;;
2020/04/07 06:22:59;;;;;;;9.1;5.1;;;;;;;15.69;39.89355;949.7534;;;;
2020/04/07 06:25:24;;;;;;;9.9;5.1;;;;;;;16.07;39.27051;949.8027;;;;
2020/04/07 06:27:50;;;;;;;7.3;4.4;;;;;;;16.98;36.82617;949.8176;;;;
2020/04/07 06:30:15;;;;;;;8.3;4.5;;;;;;;16.71;37.66113;949.7753;;;;
2020/04/07 06:32:41;;;;;;;7.8;4.3;;;;;;;16.97;36.1416;949.7943;;;;
2020/04/07 06:35:06;;;;;;;9.8;4.6;;;;;;;18.31;34.25195;949.7992;;;;
2020/04/07 06:37:33;;;;;;;8.3;4.1;;;;;;;17.95;33.44629;949.7644;;;;
2020/04/07 06:39:58;;;;;;;8.6;4;;;;;;;17.7;33.98438;949.7496;;;;
2020/04/07 06:42:25;;;;;;;8.4;4.8;;;;;;;17.71;34.87793;949.752;;;;
2020/04/07 06:44:50;;;;;;;8.4;4.6;;;;;;;17.87;34.16016;949.8233;;;;
2020/04/07 06:47:15;;;;;;;12.8;4.5;;;;;;;16.92;35.74316;949.7611;;;;
2020/04/07 06:49:40;;;;;;;8.8;4.4;;;;;;;18.18;34.87012;949.7798;;;;
2020/04/07 06:52:05;;;;;;;10;4.2;;;;;;;18.97;32.25488;949.7701;;;;
2020/04/07 06:54:30;;;;;;;10.9;4.4;;;;;;;18.96;31.94043;949.7355;;;;
2020/04/07 06:56:55;;;;;;;6.9;3.8;;;;;;;17.74;33.56934;949.7344;;;;
2020/04/07 06:59:20;;;;;;;7.1;3.7;;;;;;;17.15;34.7998;949.7477;;;;
2020/04/07 07:01:45;;;;;;;9.9;3.9;;;;;;;17.75;33.97656;949.707;;;;
2020/04/07 07:04:11;;;;;;;8.1;3.2;;;;;;;18.35;33.94141;949.6418;;;;
2020/04/07 07:06:36;;;;;;;7.1;3.4;;;;;;;19.4;31.2959;949.6415;;;;
2020/04/07 07:09:02;;;;;;;5.6;3.4;;;;;;;19.82;30.27637;949.66;;;;
2020/04/07 07:11:27;;;;;;;3.8;3.2;;;;;;;19.86;30.97852;949.5602;;;;
2020/04/07 07:13:52;;;;;;;5;3.4;;;;;;;19.96;30.21582;949.6184;;;;
2020/04/07 07:16:17;;;;;;;7.3;3.7;;;;;;;18.91;31.64551;949.6396;;;;
2020/04/07 07:18:42;;;;;;;7.5;3.6;;;;;;;19.97;30.16992;949.6628;;;;
2020/04/07 07:21:09;;;;;;;8.4;3.8;;;;;;;21.27;28.7373;949.6811;;;;
2020/04/07 07:23:34;;;;;;;7;3.4;;;;;;;21.48;27.82617;949.6889;;;;
2020/04/07 07:26:00;;;;;;;5.8;3.2;;;;;;;20.99;28.3916;949.6545;;;;
2020/04/07 07:28:25;;;;;;;8.7;3.5;;;;;;;21.98;26.38086;949.6728;;;;
2020/04/07 07:30:53;;;;;;;7.3;3;;;;;;;22.53;27.69336;949.6067;;;;
2020/04/07 07:33:18;;;;;;;6;3.4;;;;;;;22.02;26.07813;949.5903;;;;
2020/04/07 07:35:43;;;;;;;7.3;3.1;;;;;;;21.84;26.8291;949.6183;;;;
2020/04/07 07:38:08;;;;;;;9.2;3.2;;;;;;;22.8;26.15918;949.6092;;;;
2020/04/07 07:40:33;;;;;;;7.2;3.2;;;;;;;23.06;25.16504;949.5764;;;;
2020/04/07 07:42:58;;;;;;;5.3;3.3;;;;;;;22.27;26.29199;949.5804;;;;
2020/04/07 07:47:49;;;;;;;6.3;3.2;;;;;;;24.77;23.31543;949.5714;;;;
2020/04/07 07:50:15;;;;;;;4.1;3;;;;;;;24.61;22.90625;949.5804;;;;
2020/04/07 07:52:40;;;;;;;7;3.2;;;;;;;24.01;24.57031;949.5442;;;;
2020/04/07 07:55:06;;;;;;;7.4;3;;;;;;;24.88;22.94336;949.5449;;;;
2020/04/07 07:57:31;;;;;;;9.3;3.3;;;;;;;24.5;22.75879;949.5074;;;;
2020/04/07 07:59:57;;;;;;;3.8;2.8;;;;;;;24.58;22.66895;949.5233;;;;
2020/04/07 08:04:47;;;;;;;5.8;2.8;;;;;;;25.08;22.41113;949.5253;;;;
2020/04/07 08:07:13;;;;;;;5.1;3.1;;;;;;;25.43;21.68457;949.4117;;;;
2020/04/07 08:09:38;;;;;;;5.1;3;;;;;;;24.64;21.92871;949.4781;;;;
2020/04/07 08:12:03;;;;;;;6.8;3.5;;;;;;;24.31;21.97168;949.4227;;;;
2020/04/07 08:16:53;;;;;;;7;3.6;;;;;;;24.67;22.34277;949.4203;;;;
2020/04/07 08:19:19;;;;;;;7;3.6;;;;;;;25.81;21.25391;949.3549;;;;
2020/04/07 08:21:43;;;;;;;4.3;3.3;;;;;;;27.22;20.28906;949.3386;;;;
2020/04/07 08:24:08;;;;;;;9.2;3.8;;;;;;;28.05;20.10059;949.3669;;;;
2020/04/07 08:26:34;;;;;;;4.6;3.3;;;;;;;28.88;19.18555;949.3702;;;;
2020/04/07 08:29:00;;;;;;;6.1;3.3;;;;;;;30.08;18.19824;949.372;;;;
2020/04/07 08:32:24;;;;;;;8.5;3.1;;;;;;;30.43;17.54395;949.3878;;;;
2020/04/07 08:34:05;;;;;;;4.2;3.1;;;;;;;31.46;17.16504;949.3005;;;;
2020/04/07 08:36:36;;;;;;;6.9;3.3;;;;;;;31.58;17.07324;949.3478;;;;
2020/04/07 08:38:41;;;;;;;5;3;;;;;;;31.83;16.6875;949.3658;;;;
2020/04/07 08:41:13;;;;;;;5.9;3.6;;;;;;;31.98;16.18945;949.3055;;;;
2020/04/07 08:43:30;;;;;;;5.1;3.3;;;;;;;32.61;15.6123;949.3207;;;;
2020/04/07 08:45:56;;;;;;;5.7;3.2;;;;;;;32.87;16.28125;949.2509;;;;
2020/04/07 08:48:22;;;;;;;7.1;3.5;;;;;;;32.04;16.83887;949.1599;;;;
2020/04/07 08:50:47;;;;;;;4.3;3.5;;;;;;;30.6;17.83691;949.1855;;;;
2020/04/07 08:53:13;;;;;;;5.5;3.7;;;;;;;31.89;16.59375;949.1797;;;;
2020/04/07 08:55:38;;;;;;;6.3;3.6;;;;;;;31.92;17.14648;949.1738;;;;
2020/04/07 08:58:03;;;;;;;6.6;4.1;;;;;;;32.31;16.45313;949.1705;;;;
2020/04/07 09:00:28;;;;;;;6.9;4.9;;;;;;;32.46;16.19434;949.1628;;;;
2020/04/07 09:02:53;;;;;;;9.6;4.1;;;;;;;32.02;16.75391;949.0957;;;;
2020/04/07 09:05:19;;;;;;;11.2;4.1;;;;;;;30.35;17.62402;949.1353;;;;
2020/04/07 09:07:44;;;;;;;13.8;4.9;;;;;;;30.51;18.06055;949.0642;;;;
2020/04/07 09:10:09;;;;;;;8.2;5.1;;;;;;;30.34;18.92578;949.0504;;;;
2020/04/07 09:12:35;;;;;;;6.6;4.5;;;;;;;30.19;19.41992;949.0416;;;;
2020/04/07 09:15:00;;;;;;;7.9;5.4;;;;;;;30.52;18.35938;949.0193;;;;
2020/04/07 09:17:25;;;;;;;9.4;5.7;;;;;;;30.62;17.74219;949.0188;;;;
2020/04/07 09:19:50;;;;;;;10.9;5.9;;;;;;;30.37;17.82813;948.9716;;;;
2020/04/07 09:22:15;;;;;;;7.6;5.8;;;;;;;30.47;17.18652;948.9153;;;;
2020/04/07 09:24:40;;;;;;;8.1;5.6;;;;;;;30.52;17.05762;948.9511;;;;
2020/04/07 09:27:06;;;;;;;7.8;5.6;;;;;;;30.74;16.63574;948.9313;;;;
2020/04/07 09:29:30;;;;;;;9;6;;;;;;;30.63;17.22949;948.9542;;;;
2020/04/07 09:32:24;;;;;;;10;5.8;;;;;;;30.5;17.41504;948.9475;;;;
2020/04/07 09:34:33;;;;;;;8.4;5.5;;;;;;;30.78;17.24707;948.916;;;;
2020/04/07 09:37:03;;;;;;;9;5.6;;;;;;;30.67;17.3252;948.9286;;;;
2020/04/07 09:39:17;;;;;;;6.7;5.2;;;;;;;30.94;17.08496;948.9243;;;;
2020/04/07 09:41:45;;;;;;;7.5;5.1;;;;;;;31.09;17.47363;948.9062;;;;
2020/04/07 09:44:05;;;;;;;7.9;5.5;;;;;;;29.88;19.04883;948.8099;;;;
2020/04/07 09:46:30;;;;;;;8.4;5.6;;;;;;;28.73;20.29785;948.8348;;;;
2020/04/07 09:48:55;;;;;;;8.9;6.4;;;;;;;27.47;20.94141;948.8209;;;;
2020/04/07 09:51:20;;;;;;;10.5;6.6;;;;;;;27.45;21.67578;948.7473;;;;
2020/04/07 09:53:51;;;;;;;10;7.1;;;;;;;26.98;21.41602;948.7059;;;;
2020/04/07 09:56:10;;;;;;;12.2;7.4;;;;;;;26.68;22.24219;948.6995;;;;
2020/04/07 09:58:37;;;;;;;9.6;7.2;;;;;;;26.36;22.5459;948.6974;;;;
2020/04/07 10:01:05;;;;;;;10.7;7.7;;;;;;;26.39;22.52441;948.7064;;;;
2020/04/07 10:03:27;;;;;;;12.6;7.6;;;;;;;26.01;23.19141;948.6359;;;;
2020/04/07 10:05:54;;;;;;;12.8;7.9;;;;;;;26.13;22.79492;948.5659;;;;
2020/04/07 10:08:19;;;;;;;12.7;8;;;;;;;26.15;23.22168;948.5408;;;;
2020/04/07 10:10:46;;;;;;;11.8;7.1;;;;;;;26.41;22.37109;948.5616;;;;
2020/04/07 10:13:11;;;;;;;16.8;7.3;;;;;;;26.01;22.16211;948.4775;;;;
2020/04/07 10:15:36;;;;;;;11.5;6.8;;;;;;;25.96;21.8877;948.4492;;;;
2020/04/07 10:18:01;;;;;;;11.7;6.7;;;;;;;25.82;22.63672;948.4725;;;;
2020/04/07 10:20:28;;;;;;;11.3;7.1;;;;;;;26.18;20.73828;948.3709;;;;
2020/04/07 10:22:53;;;;;;;11.5;7.1;;;;;;;25.8;21.58398;948.421;;;;
2020/04/07 10:25:19;;;;;;;10.8;7.1;;;;;;;25.77;22.5166;948.3752;;;;
2020/04/07 10:27:44;;;;;;;9.4;6.5;;;;;;;26.32;21.59766;948.4194;;;;
2020/04/07 10:30:22;;;;;;;10.1;6.8;;;;;;;26.85;19.7627;948.353;;;;
2020/04/07 10:32:41;;;;;;;10.5;7;;;;;;;27.02;22.06934;948.3801;;;;
2020/04/07 10:35:06;;;;;;;10.1;6.5;;;;;;;27.17;19.99023;948.3225;;;;
2020/04/07 10:37:32;;;;;;;8.6;6.1;;;;;;;27.76;20.09961;948.335;;;;
2020/04/07 10:39:57;;;;;;;10.1;6.8;;;;;;;28.33;18.31836;948.2881;;;;
2020/04/07 10:42:22;;;;;;;9.2;6.6;;;;;;;27.73;18.92285;948.2971;;;;
2020/04/07 10:44:47;;;;;;;10.2;6.3;;;;;;;27.77;19.53027;948.2969;;;;
2020/04/07 10:47:14;;;;;;;10.5;6.5;;;;;;;27.64;19.13281;948.2271;;;;
2020/04/07 10:49:39;;;;;;;9.8;6.5;;;;;;;27.38;19.52539;948.1375;;;;
2020/04/07 10:52:06;;;;;;;8.9;6.7;;;;;;;27.21;19.77832;948.1785;;;;
2020/04/07 10:54:31;;;;;;;11;7.1;;;;;;;26.67;19.99121;948.2097;;;;
2020/04/07 10:56:56;;;;;;;8.3;6.5;;;;;;;26.9;20.61816;948.1459;;;;
2020/04/07 10:59:21;;;;;;;9.7;6.6;;;;;;;27.83;18.33301;948.1503;;;;
2020/04/07 11:01:46;;;;;;;10.5;6;;;;;;;28.93;17.87793;948.1902;;;;
2020/04/07 11:04:11;;;;;;;10.4;6.5;;;;;;;29.23;16.8418;948.1672;;;;
2020/04/07 11:06:36;;;;;;;9;6.5;;;;;;;28.71;17.54883;948.1101;;;;
2020/04/07 11:09:05;;;;;;;9.8;6.3;;;;;;;28.66;17.95117;948.0339;;;;
2020/04/07 11:11:29;;;;;;;9.1;6.6;;;;;;;27.65;18.62305;948.0176;;;;
2020/04/07 11:13:53;;;;;;;10.2;6.5;;;;;;;27.49;19.85059;947.9174;;;;
2020/04/07 11:16:36;;;;;;;8.3;6.1;;;;;;;28.12;18.51172;947.9715;;;;
2020/04/07 11:18:46;;;;;;;10.2;6.9;;;;;;;27.95;19.36035;947.9185;;;;
2020/04/07 11:21:19;;;;;;;12.5;6.5;;;;;;;28.88;18.32813;947.995;;;;
2020/04/07 11:23:43;;;;;;;9.5;6.3;;;;;;;28.07;19.31738;947.8261;;;;
2020/04/07 11:26:49;;;;;;;7.9;6.5;;;;;;;27.86;20.67383;947.7933;;;;
2020/04/07 11:31:08;;;;;;;8.8;6.4;;;;;;;28.62;18.4248;947.8601;;;;
2020/04/07 11:33:28;;;;;;;8;6.1;;;;;;;29.06;18.84766;947.8489;;;;
2020/04/07 11:36:28;;;;;;;9.8;6.2;;;;;;;29.17;18.30469;947.7474;;;;
2020/04/07 11:38:24;;;;;;;13.4;5.8;;;;;;;28.6;20.05371;947.7664;;;;
2020/04/07 11:40:50;;;;;;;8;5.7;;;;;;;29.18;18.38867;947.7355;;;;
2020/04/07 11:43:12;;;;;;;10.1;5.7;;;;;;;28.6;19.76855;947.6738;;;;
2020/04/07 11:45:31;;;;;;;7.1;5.6;;;;;;;28.21;19.20508;947.6775;;;;
2020/04/07 11:47:55;;;;;;;8.5;5.4;;;;;;;28.09;20.04297;947.6166;;;;
2020/04/07 11:50:22;;;;;;;12;6.4;;;;;;;28.27;19.25391;947.5266;;;;
2020/04/07 11:52:46;;;;;;;7.5;6.1;;;;;;;29.31;17.23828;947.5901;;;;
2020/04/07 11:55:11;;;;;;;15.2;6.1;;;;;;;29.7;18.18262;947.5686;;;;
2020/04/07 11:57:36;;;;;;;11.6;6.7;;;;;;;28.38;18.59375;947.5198;;;;
2020/04/07 12:00:01;;;;;;;10.3;6.3;;;;;;;28.82;19.11133;947.5616;;;;
2020/04/07 12:02:27;;;;;;;9.1;5.8;;;;;;;30.27;17.53809;947.4866;;;;
2020/04/07 12:04:51;;;;;;;7.6;5.9;;;;;;;29.47;18.32813;947.4772;;;;
2020/04/07 12:07:17;;;;;;;6.8;5.8;;;;;;;30.43;17.65137;947.4233;;;;
2020/04/07 12:09:42;;;;;;;11.3;5.8;;;;;;;30.61;17.00098;947.3909;;;;
2020/04/07 12:12:07;;;;;;;10;6.3;;;;;;;30.15;17.10352;947.468;;;;
2020/04/07 12:14:33;;;;;;;11.8;6.5;;;;;;;29.54;18.70117;947.2859;;;;
2020/04/07 12:16:58;;;;;;;10.5;6;;;;;;;28.78;18.68164;947.2967;;;;
2020/04/07 12:19:25;;;;;;;16.5;6.7;;;;;;;28.49;19.03809;947.3764;;;;
2020/04/07 12:21:57;;;;;;;11.4;6.8;;;;;;;28.54;18.42188;947.4252;;;;
2020/04/07 12:24:24;;;;;;;8.1;6;;;;;;;30.74;16.99414;947.2503;;;;
2020/04/07 12:26:56;;;;;;;11.1;6.1;;;;;;;30.01;17.49121;947.1958;;;;
2020/04/07 12:29:24;;;;;;;11.1;6.6;;;;;;;27.93;18.58691;947.2213;;;;
2020/04/07 12:36:36;;;;;;;8.1;6.1;;;;;;;27.4;20.3916;947.0354;;;;
2020/04/07 12:39:37;;;;;;;8.2;5.5;;;;;;;27.48;21.15527;946.9727;;;;
2020/04/07 12:48:41;;;;;;;9.9;6.1;;;;;;;26.94;20.75;946.887;;;;
2020/04/07 12:51:19;;;;;;;10;5.9;;;;;;;26.69;20.12305;946.8917;;;;
2020/04/07 12:53:27;;;;;;;10;5.6;;;;;;;27.23;20.88281;946.7522;;;;
2020/04/07 12:55:51;;;;;;;12.4;6.1;;;;;;;26.63;20.67676;946.7908;;;;
2020/04/07 12:58:20;;;;;;;10.8;5.9;;;;;;;26.17;20.58496;946.8402;;;;
2020/04/07 13:00:33;;;;;;;8.6;5.2;;;;;;;27.33;20.31738;946.8094;;;;
2020/04/07 13:02:58;;;;;;;7.8;5.4;;;;;;;27.3;19.9248;946.8181;;;;
2020/04/07 13:05:23;;;;;;;8.3;5.4;;;;;;;26.6;21.45703;946.782;;;;
2020/04/07 13:07:48;;;;;;;8.2;5.3;;;;;;;26.15;21.3291;946.7994;;;;
2020/04/07 13:10:13;;;;;;;9.9;5.6;;;;;;;25.41;21.74316;946.7427;;;;
2020/04/07 13:12:39;;;;;;;8.4;5.9;;;;;;;24.49;22.56934;946.704;;;;
2020/04/07 13:15:04;;;;;;;10.9;6.6;;;;;;;23.95;23.37891;946.6872;;;;
2020/04/07 13:17:31;;;;;;;9.7;5.5;;;;;;;23.81;23.74805;946.7012;;;;
2020/04/07 13:19:56;;;;;;;8;5.5;;;;;;;23.95;22.69531;946.7515;;;;
2020/04/07 13:22:21;;;;;;;10.2;5.8;;;;;;;23.9;23.97656;946.6412;;;;
2020/04/07 13:24:46;;;;;;;7.9;6;;;;;;;23.64;23.20898;946.707;;;;
2020/04/07 13:27:11;;;;;;;9.4;5.6;;;;;;;23.79;23.2168;946.6638;;;;
2020/04/07 13:29:39;;;;;;;9.6;6.1;;;;;;;23.98;22.67383;946.6594;;;;
2020/04/07 13:32:04;;;;;;;11.7;5.8;;;;;;;23.91;25.44824;946.5094;;;;
2020/04/07 13:34:30;;;;;;;10.5;6.6;;;;;;;23.54;25.09766;946.5726;;;;
2020/04/07 13:36:55;;;;;;;10.6;5.9;;;;;;;23.66;23.62207;946.5469;;;;
2020/04/07 13:39:29;;;;;;;10;6.4;;;;;;;23.42;25.41992;946.5292;;;;
2020/04/07 13:41:54;;;;;;;11;6.2;;;;;;;23.34;23.75781;946.5255;;;;
2020/04/07 13:44:19;;;;;;;8.3;5.5;;;;;;;23.47;24.05859;946.5078;;;;
2020/04/07 13:46:44;;;;;;;8.8;6;;;;;;;23.37;24.13574;946.4662;;;;
2020/04/07 13:49:09;;;;;;;11.6;6.5;;;;;;;23.09;23.74512;946.4075;;;;
2020/04/07 13:51:34;;;;;;;10;6.3;;;;;;;23.15;24.13574;946.5425;;;;
2020/04/07 13:53:59;;;;;;;9.4;6.3;;;;;;;23.28;24.26074;946.4435;;;;
2020/04/07 13:56:25;;;;;;;9.5;6.2;;;;;;;23.22;24.30371;946.5098;;;;
2020/04/07 13:58:50;;;;;;;9.7;6.2;;;;;;;23.13;24.19336;946.4326;;;;
2020/04/07 14:01:18;;;;;;;9;5.9;;;;;;;23.43;23.60938;946.3934;;;;
2020/04/07 14:03:42;;;;;;;10;6.1;;;;;;;23.52;23.58008;946.3315;;;;
2020/04/07 14:06:07;;;;;;;8.7;6;;;;;;;23.41;24.57324;946.3376;;;;
2020/04/07 14:10:57;;;;;;;13.2;6.5;;;;;;;23.34;23.57031;946.276;;;;
2020/04/07 14:13:23;;;;;;;9.3;5.8;;;;;;;23.33;25.07422;946.2675;;;;
2020/04/07 14:15:48;;;;;;;8.9;6.4;;;;;;;23.35;24.46387;946.1757;;;;
2020/04/07 14:18:13;;;;;;;14.1;6.7;;;;;;;23.32;24.84961;946.2011;;;;
2020/04/07 14:20:38;;;;;;;8.5;5.9;;;;;;;23.22;25.43262;946.2108;;;;
2020/04/07 14:23:03;;;;;;;7.5;5.7;;;;;;;23.17;25.13574;946.1128;;;;
2020/04/07 14:25:28;;;;;;;11.3;6.1;;;;;;;23.17;25.01758;946.1584;;;;
2020/04/07 14:27:54;;;;;;;9.9;6;;;;;;;23.22;24.70313;946.1301;;;;
2020/04/07 14:30:19;;;;;;;13;6.5;;;;;;;22.86;24.19043;946.1021;;;;
2020/04/07 14:32:44;;;;;;;10.9;6.7;;;;;;;22.69;25.94141;946.0758;;;;
2020/04/07 14:35:09;;;;;;;9.4;6.2;;;;;;;22.78;25.41895;946.075;;;;
2020/04/07 14:37:34;;;;;;;11.6;6;;;;;;;22.93;26.09668;946.0825;;;;
2020/04/07 14:39:59;;;;;;;9.7;6.4;;;;;;;22.91;25.37891;946.0754;;;;
2020/04/07 14:42:24;;;;;;;9.4;6.8;;;;;;;22.79;25.39551;946.0829;;;;
2020/04/07 14:44:50;;;;;;;9.6;7.1;;;;;;;22.68;24.91992;946.0549;;;;
2020/04/07 14:47:15;;;;;;;7.9;6.4;;;;;;;22.78;24.76074;946.0313;;;;
2020/04/07 14:49:40;;;;;;;8.7;6.2;;;;;;;22.71;25.19238;945.9915;;;;
2020/04/07 14:52:08;;;;;;;9.6;6.6;;;;;;;22.68;25.17871;945.9208;;;;